Terminal Aerodrome Forecast
Issued by NWS

Home | Current Version | Previous Version | Text Only | Print | Product List | Glossary Off
Versions: 1 2 3 4 5 6 7 8 9 10 11 12 13 14 15 16 17 18 19 20 21 22

000
FTUS43 KTOP 031138
TAFFOE
TAF
KFOE 031138Z 0312/0412 09004KT 4SM -SHRA BR BKN005 OVC011
      TEMPO 0312/0313 2SM -SHRA BR OVC004
     FM031500 04005KT P6SM SCT015 BKN025
     FM031900 03005KT P6SM SCT050
     FM040200 04004KT P6SM SCT100=

USA.gov is the U.S. government's official web portal to all federal, state and local government web resources and services.